Pagina principale
METAR-TAF:

METAR-TAF

Aeroporti :

Aeroporto di Moroni-Principe Saïd Ibrahim

Moroni, Comore

latitudine: 11-32S, longitudine: 043-16E, altezza: 29 m

Osservazione

Il bollettino è stato emesso 4 ore e 21 minuti fa, alle 22:00 UTC
Vento 4 kt da est
Temperature 22°C
Umidità 83%
Pressione 1017 hPa
Visibilità 10 km o più
Poco nuvoloso ad un'altezza di 2000 ft

METAR: FMCH 182200Z 08004KT 9999 FEW020 22/19 Q1017 NOSIG

Ora: 05:21 (02:21 UTC)

Previsione

Il bollettino è stato emesso 9 ore e 21 minuti fa, alle 17:00 UTC
Previsione valida dal 18 alle 18 UTC al 19 alle 24 UTC
Vento 3 kt da sud-est
Visibilità 10 km o più
Poco nuvoloso ad un'altezza di 2000 ft
Nubi sparse ad un'altezza di 3000 ft
Evoluzione graduale
dal 19 alle 05 UTC al 19 alle 07 UTC
Vento 10 kt da sud-ovest
Evoluzione graduale
dal 19 alle 15 UTC al 19 alle 17 UTC
Vento 3 kt da direzioni variabili

TAF: FMCH 181700Z 1818/1924 14003KT 9999 FEW020 SCT030 BECMG 1905/1907 23010KT BECMG 1915/1917 VRB03KT

Osservazioni e previsioni meteorologiche di più di 4000 aeroporti (messaggi METAR e TAF).

Le stazioni disponibili sono rappresentate dai dischi gialli e rossi sulla carta.

Puntare il mouse per vedere il nome della stazione.

Clicca sopra per visualizzare le osservazioni e previsioni meteorologiche.

Per cambiare la mappa : fare clic sui pulsanti verdi con una croce nera per ingrandire, il pulsante verde con un trattino per diminuire, o sulla freccia verde per le mappe adiacenti.


METAR-TAF: